createdAt,value
2022-08-03T00:01:27.575Z,17.80
2022-08-03T00:03:54.132Z,17.85
2022-08-03T00:06:20.705Z,17.89
2022-08-03T00:08:47.354Z,17.90
2022-08-03T00:11:14.002Z,17.95
2022-08-03T00:13:40.563Z,17.94
2022-08-03T00:16:07.205Z,17.94
2022-08-03T00:18:33.747Z,17.93
2022-08-03T00:21:00.285Z,17.91
2022-08-03T00:23:29.400Z,17.92
2022-08-03T00:26:13.360Z,17.92
2022-08-03T00:28:39.937Z,17.88
2022-08-03T00:31:07.488Z,17.83
2022-08-03T00:33:59.948Z,17.76
2022-08-03T00:36:27.717Z,17.76
2022-08-03T00:38:54.899Z,17.78
2022-08-03T00:41:21.632Z,17.81
2022-08-03T00:43:48.426Z,17.88
2022-08-03T00:46:20.624Z,17.92
2022-08-03T00:48:51.542Z,17.97
2022-08-03T00:51:19.103Z,17.96
2022-08-03T00:53:46.101Z,17.91
2022-08-03T00:56:16.846Z,17.90
2022-08-03T00:58:47.146Z,17.84
2022-08-03T01:01:14.438Z,17.82
2022-08-03T01:03:41.229Z,17.83
2022-08-03T01:06:16.474Z,17.82
2022-08-03T01:08:59.024Z,17.81
2022-08-03T01:12:00.576Z,17.83
2022-08-03T01:14:39.184Z,17.79
2022-08-03T01:17:15.607Z,17.77
2022-08-03T01:19:49.583Z,17.78
2022-08-03T01:22:51.640Z,17.75
2022-08-03T01:25:42.881Z,17.74
2022-08-03T01:28:38.417Z,17.73
2022-08-03T01:31:08.581Z,17.72
2022-08-03T01:33:42.617Z,17.67
2022-08-03T01:36:22.443Z,17.68
2022-08-03T01:38:59.016Z,17.67
2022-08-03T01:41:31.815Z,17.66
2022-08-03T01:44:29.602Z,17.64
2022-08-03T01:46:51.567Z,17.61
2022-08-03T01:49:18.516Z,17.59
2022-08-03T01:52:03.042Z,17.56
2022-08-03T01:54:36.165Z,17.55
2022-08-03T01:57:03.481Z,17.55
2022-08-03T01:59:32.463Z,17.56
2022-08-03T02:02:16.065Z,17.58
2022-08-03T02:04:49.005Z,17.61
2022-08-03T02:07:16.542Z,17.64
2022-08-03T02:09:45.856Z,17.63
2022-08-03T02:12:15.085Z,17.63
2022-08-03T02:14:44.543Z,17.58
2022-08-03T02:17:13.973Z,17.53
2022-08-03T02:19:43.087Z,17.49
2022-08-03T02:22:12.995Z,17.50
2022-08-03T02:24:40.445Z,17.48
2022-08-03T02:27:15.188Z,17.51
2022-08-03T02:29:45.876Z,17.50
2022-08-03T02:32:16.958Z,17.44
2022-08-03T02:34:47.641Z,17.39
2022-08-03T02:37:18.120Z,17.34
2022-08-03T02:39:45.549Z,17.29
2022-08-03T02:42:15.775Z,17.28
2022-08-03T02:44:48.521Z,17.23
2022-08-03T02:47:17.193Z,17.24
2022-08-03T02:49:51.519Z,17.21
2022-08-03T02:52:21.074Z,17.21
2022-08-03T02:54:51.385Z,17.26
2022-08-03T02:57:19.969Z,17.25
2022-08-03T02:59:47.856Z,17.26
2022-08-03T03:02:17.334Z,17.25
2022-08-03T03:05:52.490Z,17.26
2022-08-03T03:07:37.243Z,17.21
2022-08-03T03:10:21.578Z,17.21
2022-08-03T03:12:50.236Z,17.22
2022-08-03T03:15:17.089Z,17.18
2022-08-03T03:17:44.335Z,17.09
2022-08-03T03:20:12.052Z,17.06
2022-08-03T03:22:39.985Z,17.03
2022-08-03T03:25:07.481Z,17.07
2022-08-03T03:27:34.616Z,17.07
2022-08-03T03:30:02.515Z,17.07
2022-08-03T03:32:29.890Z,17.06
2022-08-03T03:34:57.150Z,17.02
2022-08-03T03:37:23.688Z,16.99
2022-08-03T03:39:50.295Z,16.97
2022-08-03T03:42:17.325Z,16.95
2022-08-03T03:44:44.005Z,16.95
2022-08-03T03:47:10.705Z,16.94
2022-08-03T03:49:40.690Z,16.96
2022-08-03T03:52:07.385Z,16.91
2022-08-03T03:54:44.772Z,16.88
2022-08-03T03:57:13.725Z,16.82
2022-08-03T03:59:44.003Z,16.81
2022-08-03T04:02:11.797Z,16.83
2022-08-03T04:04:57.730Z,16.89
2022-08-03T04:07:44.294Z,16.94
2022-08-03T04:10:37.687Z,16.94
2022-08-03T04:13:10.160Z,16.90
2022-08-03T04:15:39.757Z,16.90
2022-08-03T04:18:09.868Z,16.89
2022-08-03T04:20:38.802Z,16.87
2022-08-03T04:23:13.512Z,16.88
2022-08-03T04:25:43.993Z,16.87
2022-08-03T04:28:30.363Z,16.92
2022-08-03T04:31:02.885Z,16.92
2022-08-03T04:33:33.213Z,16.95
2022-08-03T04:36:06.438Z,16.95
2022-08-03T04:38:38.844Z,16.98
2022-08-03T04:41:05.641Z,16.97
2022-08-03T04:43:34.234Z,17.02
2022-08-03T04:46:02.961Z,17.08
2022-08-03T04:48:30.109Z,17.14
2022-08-03T04:50:57.137Z,17.16
2022-08-03T04:53:24.073Z,17.20
2022-08-03T04:55:50.730Z,17.22
2022-08-03T04:58:17.288Z,17.25
2022-08-03T05:00:45.626Z,17.24
2022-08-03T05:03:20.127Z,17.27
2022-08-03T05:06:01.545Z,17.31
2022-08-03T05:08:29.493Z,17.33
2022-08-03T05:10:59.148Z,17.37
2022-08-03T05:13:26.138Z,17.46
2022-08-03T05:15:52.944Z,17.51
2022-08-03T05:18:19.838Z,17.54
2022-08-03T05:20:46.576Z,17.59
2022-08-03T05:23:13.163Z,17.62
2022-08-03T05:25:39.888Z,17.65
2022-08-03T05:28:12.720Z,17.71
2022-08-03T05:30:39.391Z,17.75
2022-08-03T05:33:06.271Z,17.83
2022-08-03T05:35:57.787Z,17.94
2022-08-03T05:38:24.266Z,18.02
2022-08-03T05:40:57.241Z,18.12
2022-08-03T05:43:44.316Z,18.22
2022-08-03T05:46:11.642Z,18.28
2022-08-03T05:48:39.458Z,18.34
2022-08-03T05:51:07.761Z,18.38
2022-08-03T05:53:34.619Z,18.46
2022-08-03T05:56:13.349Z,18.55
2022-08-03T05:58:46.384Z,18.62
2022-08-03T06:01:13.208Z,18.73
2022-08-03T06:03:39.851Z,18.79
2022-08-03T06:06:06.479Z,18.83
2022-08-03T06:08:33.062Z,18.87
2022-08-03T06:11:00.270Z,18.92
2022-08-03T06:13:26.829Z,18.98
2022-08-03T06:15:53.360Z,19.00
2022-08-03T06:18:20.216Z,18.99
2022-08-03T06:20:49.631Z,19.00
2022-08-03T06:23:18.064Z,18.98
2022-08-03T06:25:45.852Z,19.05
2022-08-03T06:28:42.610Z,19.19
2022-08-03T06:31:01.393Z,19.32
2022-08-03T06:34:31.268Z,19.46
2022-08-03T06:36:15.311Z,19.74
2022-08-03T06:38:42.185Z,19.84
2022-08-03T06:41:08.808Z,19.94
2022-08-03T06:43:37.811Z,20.10
2022-08-03T06:46:05.695Z,20.07
2022-08-03T06:48:32.712Z,20.01
2022-08-03T06:51:16.146Z,20.07
2022-08-03T06:53:42.803Z,20.23
2022-08-03T06:56:09.323Z,20.42
2022-08-03T06:58:35.913Z,20.61
2022-08-03T07:01:02.543Z,20.83
2022-08-03T07:03:29.095Z,21.06
2022-08-03T07:05:55.780Z,21.30
2022-08-03T07:08:33.774Z,21.47
2022-08-03T07:11:01.518Z,21.75
2022-08-03T07:13:28.326Z,22.02
2022-08-03T07:15:56.297Z,22.46
2022-08-03T07:18:28.315Z,22.74
2022-08-03T07:20:56.418Z,22.66
2022-08-03T07:23:22.994Z,22.77
2022-08-03T07:25:50.879Z,22.62
2022-08-03T07:28:17.772Z,22.56
2022-08-03T07:30:44.481Z,22.67
2022-08-03T07:33:11.168Z,22.89
2022-08-03T07:35:38.235Z,22.98
2022-08-03T07:38:04.758Z,23.11
2022-08-03T07:40:32.134Z,23.32
2022-08-03T07:42:59.817Z,23.31
2022-08-03T07:45:26.976Z,23.50
2022-08-03T07:47:54.249Z,23.76
2022-08-03T07:50:21.904Z,24.17
2022-08-03T07:52:49.411Z,24.49
2022-08-03T07:55:17.156Z,24.89
2022-08-03T07:57:43.829Z,24.95
2022-08-03T08:00:18.597Z,25.06
2022-08-03T08:02:45.736Z,24.89
2022-08-03T08:05:13.252Z,25.21
2022-08-03T08:07:40.540Z,25.56
2022-08-03T08:10:10.017Z,26.11
2022-08-03T08:12:38.713Z,26.50
2022-08-03T08:15:06.316Z,26.90
2022-08-03T08:17:42.522Z,27.13
2022-08-03T08:20:11.106Z,27.23
2022-08-03T08:22:37.645Z,27.55
2022-08-03T08:25:07.409Z,27.75
2022-08-03T08:28:29.831Z,27.90
2022-08-03T08:30:22.243Z,27.90
2022-08-03T08:32:50.028Z,28.00
2022-08-03T08:35:18.517Z,28.15
2022-08-03T08:37:50.804Z,28.27
2022-08-03T08:40:21.475Z,28.25
2022-08-03T08:42:57.951Z,28.50
2022-08-03T08:45:25.293Z,28.72
2022-08-03T08:47:55.664Z,28.72
2022-08-03T08:50:27.476Z,28.89
2022-08-03T08:52:58.888Z,28.90
2022-08-03T08:55:25.828Z,29.02
2022-08-03T08:58:05.172Z,29.59
2022-08-03T09:00:32.433Z,29.54
2022-08-03T09:03:00.740Z,29.82
2022-08-03T09:05:54.589Z,30.08
2022-08-03T09:08:14.796Z,30.26
2022-08-03T09:10:41.345Z,30.02
2022-08-03T09:13:08.593Z,30.08
2022-08-03T09:15:35.872Z,30.21
2022-08-03T09:18:03.981Z,30.74
2022-08-03T09:20:33.653Z,30.74
2022-08-03T09:23:26.234Z,30.94
2022-08-03T09:25:59.858Z,31.14
2022-08-03T09:29:01.225Z,31.18
2022-08-03T09:31:30.322Z,31.41
2022-08-03T09:34:00.993Z,31.12
2022-08-03T09:36:46.996Z,30.96
2022-08-03T09:39:17.468Z,30.71
2022-08-03T09:41:46.717Z,30.38
2022-08-03T09:44:24.815Z,30.46
2022-08-03T09:46:56.782Z,30.39
2022-08-03T09:49:25.134Z,30.89
2022-08-03T09:52:38.380Z,31.25
2022-08-03T09:54:39.664Z,31.93
2022-08-03T09:57:06.378Z,32.13
2022-08-03T09:59:34.094Z,32.21
2022-08-03T10:02:01.936Z,32.10
2022-08-03T10:04:28.793Z,32.02
2022-08-03T10:07:22.885Z,32.33
2022-08-03T10:10:31.079Z,32.61
2022-08-03T10:12:48.872Z,32.47
2022-08-03T10:16:22.020Z,32.66
2022-08-03T10:18:02.473Z,32.96
2022-08-03T10:20:29.135Z,33.00
2022-08-03T10:22:56.369Z,33.14
2022-08-03T10:25:24.054Z,33.57
2022-08-03T10:28:04.484Z,33.51
2022-08-03T10:30:33.205Z,33.81
2022-08-03T10:33:49.137Z,34.05
2022-08-03T10:35:57.710Z,33.93
2022-08-03T10:38:32.796Z,33.75
2022-08-03T10:41:01.451Z,33.77
2022-08-03T10:43:41.683Z,33.76
2022-08-03T10:46:08.660Z,33.68
2022-08-03T10:48:36.293Z,33.90
2022-08-03T10:51:03.467Z,34.23
2022-08-03T10:53:38.529Z,34.46
2022-08-03T10:56:48.051Z,34.15
2022-08-03T10:59:11.638Z,34.28
2022-08-03T11:02:00.718Z,34.31
2022-08-03T11:04:29.726Z,34.71
2022-08-03T11:07:23.466Z,34.59
2022-08-03T11:09:51.119Z,34.28
2022-08-03T11:12:32.509Z,33.97
2022-08-03T11:15:02.303Z,34.45
2022-08-03T11:17:29.080Z,34.33
2022-08-03T11:19:57.357Z,34.23
2022-08-03T11:22:25.162Z,34.29
2022-08-03T11:24:57.664Z,34.31
2022-08-03T11:27:28.966Z,34.22
2022-08-03T11:29:58.178Z,34.34
2022-08-03T11:32:49.178Z,34.35
2022-08-03T11:35:18.722Z,34.50
2022-08-03T11:38:03.494Z,34.49
2022-08-03T11:40:51.818Z,34.66
2022-08-03T11:43:31.391Z,34.61
2022-08-03T11:46:02.429Z,34.90
2022-08-03T11:48:43.726Z,34.72
2022-08-03T11:51:26.906Z,34.73
2022-08-03T11:54:00.899Z,34.57
2022-08-03T11:56:29.298Z,34.34
2022-08-03T11:59:20.079Z,34.05
2022-08-03T12:01:46.080Z,34.16
2022-08-03T12:04:12.674Z,34.44
2022-08-03T12:06:55.172Z,34.54
2022-08-03T12:09:22.274Z,34.66
2022-08-03T12:11:59.605Z,34.88
2022-08-03T12:14:50.503Z,34.89
2022-08-03T12:17:16.570Z,35.05
2022-08-03T12:19:43.913Z,35.30
2022-08-03T12:22:10.595Z,35.47
2022-08-03T12:24:43.754Z,35.52
2022-08-03T12:27:10.449Z,35.48
2022-08-03T12:29:37.312Z,35.48
2022-08-03T12:32:04.225Z,35.31
2022-08-03T12:34:47.596Z,34.74
2022-08-03T12:37:21.883Z,34.77
2022-08-03T12:40:10.061Z,34.53
2022-08-03T12:42:39.446Z,34.49
2022-08-03T12:45:28.133Z,34.33
2022-08-03T12:48:00.370Z,34.35
2022-08-03T12:50:32.900Z,34.17
2022-08-03T12:53:07.966Z,34.46
2022-08-03T12:55:57.753Z,34.73
2022-08-03T12:58:43.495Z,34.73
2022-08-03T13:01:10.842Z,34.85
2022-08-03T13:03:50.408Z,35.10
2022-08-03T13:06:24.668Z,35.14
2022-08-03T13:09:03.553Z,35.51
2022-08-03T13:11:57.206Z,35.32
2022-08-03T13:14:19.706Z,35.15
2022-08-03T13:16:47.950Z,35.17
2022-08-03T13:19:15.414Z,35.14
2022-08-03T13:22:03.615Z,35.23
2022-08-03T13:24:30.505Z,35.42
2022-08-03T13:26:58.284Z,35.36
2022-08-03T13:29:24.922Z,35.21
2022-08-03T13:31:51.736Z,35.13
2022-08-03T13:34:22.923Z,35.33
2022-08-03T13:37:08.351Z,35.19
2022-08-03T13:39:57.630Z,35.00
2022-08-03T13:42:22.537Z,34.90
2022-08-03T13:44:49.193Z,34.83
2022-08-03T13:47:16.239Z,34.60
2022-08-03T13:49:42.944Z,34.35
2022-08-03T13:52:27.953Z,34.15
2022-08-03T13:54:54.719Z,34.11
2022-08-03T13:58:02.613Z,33.78
2022-08-03T14:00:27.043Z,33.74
2022-08-03T14:03:14.837Z,33.88
2022-08-03T14:05:45.377Z,33.97
2022-08-03T14:08:12.463Z,34.02
2022-08-03T14:10:44.549Z,34.16
2022-08-03T14:13:12.513Z,34.25
2022-08-03T14:15:43.193Z,33.83
2022-08-03T14:18:28.576Z,33.66
2022-08-03T14:21:05.979Z,33.53
2022-08-03T14:23:34.566Z,33.51
2022-08-03T14:26:01.495Z,33.49
2022-08-03T14:28:28.694Z,33.49
2022-08-03T14:30:56.169Z,33.38
2022-08-03T14:33:23.387Z,33.49
2022-08-03T14:35:50.962Z,33.61
2022-08-03T14:38:18.387Z,33.29
2022-08-03T14:40:45.673Z,33.44
2022-08-03T14:43:12.886Z,33.44
2022-08-03T14:45:40.870Z,33.43
2022-08-03T14:50:32.446Z,33.29
2022-08-03T14:50:57.396Z,33.18
2022-08-03T14:53:24.195Z,33.19
2022-08-03T14:55:52.821Z,33.34
2022-08-03T14:58:30.955Z,33.34
2022-08-03T15:00:57.628Z,33.39
2022-08-03T15:03:25.367Z,33.24
2022-08-03T15:05:54.242Z,33.20
2022-08-03T15:08:21.619Z,33.09
2022-08-03T15:10:49.369Z,33.03
2022-08-03T15:13:17.139Z,32.89
2022-08-03T15:15:43.949Z,32.85
2022-08-03T15:18:10.589Z,32.78
2022-08-03T15:20:44.987Z,32.63
2022-08-03T15:23:14.253Z,32.44
2022-08-03T15:26:28.360Z,32.37
2022-08-03T15:28:29.558Z,32.19
2022-08-03T15:30:56.681Z,32.05
2022-08-03T15:33:23.372Z,31.96
2022-08-03T15:35:50.136Z,31.98
2022-08-03T15:38:17.154Z,31.88
2022-08-03T15:40:43.818Z,31.84
2022-08-03T15:43:10.775Z,31.73
2022-08-03T15:45:37.590Z,31.60
2022-08-03T15:48:05.808Z,31.67
2022-08-03T15:50:32.820Z,31.50
2022-08-03T15:52:59.373Z,31.56
2022-08-03T15:55:26.096Z,31.55
2022-08-03T15:59:03.265Z,31.37
2022-08-03T16:00:40.621Z,31.27
2022-08-03T16:03:07.552Z,31.06
2022-08-03T16:05:34.766Z,31.08
2022-08-03T16:08:03.727Z,31.13
2022-08-03T16:10:32.129Z,31.13
2022-08-03T16:13:00.155Z,31.12
2022-08-03T16:15:27.181Z,31.03
2022-08-03T16:17:53.795Z,30.90
2022-08-03T16:20:31.122Z,30.70
2022-08-03T16:23:10.541Z,30.64
2022-08-03T16:25:38.373Z,30.64
2022-08-03T16:28:07.685Z,30.51
2022-08-03T16:30:34.959Z,30.41
2022-08-03T16:33:01.579Z,30.40
2022-08-03T16:35:28.232Z,30.42
2022-08-03T16:37:56.799Z,30.37
2022-08-03T16:40:25.037Z,30.27
2022-08-03T16:42:51.691Z,30.15
2022-08-03T16:45:18.301Z,30.17
2022-08-03T16:47:44.906Z,30.29
2022-08-03T16:50:18.993Z,30.09
2022-08-03T16:52:47.220Z,30.21
2022-08-03T16:55:18.388Z,30.21
2022-08-03T16:58:02.906Z,30.08
2022-08-03T17:00:33.289Z,29.88
2022-08-03T17:03:04.218Z,29.76
2022-08-03T17:05:43.617Z,29.65
2022-08-03T17:08:14.113Z,29.51
2022-08-03T17:10:45.253Z,29.24
2022-08-03T17:13:22.074Z,29.12
2022-08-03T17:16:01.591Z,29.03
2022-08-03T17:18:35.559Z,28.91
2022-08-03T17:21:05.865Z,28.79
2022-08-03T17:23:50.574Z,28.63
2022-08-03T17:26:21.872Z,28.57
2022-08-03T17:28:58.230Z,28.62
2022-08-03T17:31:32.046Z,28.66
2022-08-03T17:34:13.337Z,28.70
2022-08-03T17:37:03.111Z,28.75
2022-08-03T17:39:42.151Z,28.79
2022-08-03T17:42:30.892Z,28.70
2022-08-03T17:45:02.277Z,28.72
2022-08-03T17:47:42.799Z,28.67
2022-08-03T17:50:24.192Z,28.59
2022-08-03T17:53:07.731Z,28.52
2022-08-03T17:55:55.541Z,28.34
2022-08-03T17:58:58.294Z,28.21
2022-08-03T18:04:42.269Z,27.86
2022-08-03T18:07:12.455Z,27.70
2022-08-03T18:10:04.391Z,27.57
2022-08-03T18:12:53.756Z,27.42
2022-08-03T18:15:28.787Z,27.30
2022-08-03T18:18:01.754Z,27.17
2022-08-03T18:20:34.503Z,27.03
2022-08-03T18:23:07.544Z,26.90
2022-08-03T18:25:42.746Z,26.76
2022-08-03T18:28:14.650Z,26.63
2022-08-03T18:30:53.228Z,26.50
2022-08-03T18:34:17.078Z,26.34
2022-08-03T18:36:09.372Z,26.14
2022-08-03T18:38:39.536Z,25.98
2022-08-03T18:41:15.629Z,25.78
2022-08-03T18:44:07.606Z,25.60
2022-08-03T18:47:16.161Z,25.35
2022-08-03T18:50:13.512Z,25.13
2022-08-03T18:55:39.742Z,24.77
2022-08-03T18:58:35.455Z,24.58
2022-08-03T19:02:00.496Z,24.42
2022-08-03T19:04:19.119Z,24.25
2022-08-03T19:07:02.599Z,24.11
2022-08-03T19:09:38.092Z,23.99
2022-08-03T19:12:30.693Z,23.83
2022-08-03T19:15:05.312Z,23.63
2022-08-03T19:17:38.379Z,23.44
2022-08-03T19:20:08.953Z,23.28
2022-08-03T19:22:38.217Z,23.10
2022-08-03T19:25:06.530Z,22.92
2022-08-03T19:27:39.553Z,22.80
2022-08-03T19:30:19.938Z,22.71
2022-08-03T19:32:54.107Z,22.57
2022-08-03T19:35:27.450Z,22.41
2022-08-03T19:38:10.693Z,22.27
2022-08-03T19:40:44.447Z,22.14
2022-08-03T19:43:33.112Z,22.01
2022-08-03T19:46:19.352Z,21.86
2022-08-03T19:49:14.662Z,21.77
2022-08-03T19:52:01.770Z,21.67
2022-08-03T19:54:36.544Z,21.61
2022-08-03T19:57:17.194Z,21.53
2022-08-03T19:59:49.840Z,21.49
2022-08-03T20:02:26.637Z,21.46
2022-08-03T20:04:56.059Z,21.44
2022-08-03T20:07:23.826Z,21.38
2022-08-03T20:09:56.064Z,21.32
2022-08-03T20:12:26.435Z,21.29
2022-08-03T20:14:55.642Z,21.18
2022-08-03T20:17:23.300Z,21.12
2022-08-03T20:20:10.025Z,21.12
2022-08-03T20:22:41.774Z,21.05
2022-08-03T20:25:10.869Z,21.05
2022-08-03T20:28:08.000Z,21.09
2022-08-03T20:30:34.357Z,21.10
2022-08-03T20:33:01.039Z,21.11
2022-08-03T20:35:29.272Z,21.09
2022-08-03T20:37:56.085Z,21.08
2022-08-03T20:40:27.445Z,21.04
2022-08-03T20:42:55.483Z,20.98
2022-08-03T20:46:00.811Z,20.96
2022-08-03T20:48:10.129Z,20.90
2022-08-03T20:50:38.656Z,20.85
2022-08-03T20:53:06.522Z,20.81
2022-08-03T20:55:48.194Z,20.76
2022-08-03T20:58:20.299Z,20.68
2022-08-03T21:00:51.430Z,20.63
2022-08-03T21:03:18.174Z,20.51
2022-08-03T21:05:51.303Z,20.46
2022-08-03T21:08:21.002Z,20.39
2022-08-03T21:10:48.961Z,20.33
2022-08-03T21:13:00.669Z,24.95
2022-08-03T21:13:05.638Z,28.04
2022-08-03T21:13:23.766Z,20.30
2022-08-03T21:16:02.334Z,20.33
2022-08-03T21:18:59.753Z,20.33
2022-08-03T21:21:31.900Z,20.28
2022-08-03T21:24:00.156Z,20.26
2022-08-03T21:26:28.155Z,20.24
2022-08-03T21:28:56.605Z,20.19
2022-08-03T21:31:25.134Z,20.19
2022-08-03T21:34:04.441Z,20.14
2022-08-03T21:36:34.021Z,20.10
2022-08-03T21:39:02.212Z,20.06
2022-08-03T21:41:30.833Z,19.99
2022-08-03T21:43:58.533Z,19.96
2022-08-03T21:46:26.985Z,19.89
2022-08-03T21:50:07.320Z,19.79
2022-08-03T21:51:50.607Z,19.71
2022-08-03T21:54:20.111Z,19.63
2022-08-03T21:56:49.991Z,19.63
2022-08-03T21:59:18.712Z,19.65
2022-08-03T22:01:48.842Z,19.66
2022-08-03T22:04:50.085Z,19.64
2022-08-03T22:07:07.831Z,19.63
2022-08-03T22:09:35.342Z,19.59
2022-08-03T22:12:02.058Z,19.53
2022-08-03T22:14:29.888Z,19.49
2022-08-03T22:16:56.675Z,19.47
2022-08-03T22:19:23.248Z,19.42
2022-08-03T22:21:50.430Z,19.38
2022-08-03T22:24:23.974Z,19.33
2022-08-03T22:27:10.310Z,19.33
2022-08-03T22:29:39.783Z,19.33
2022-08-03T22:32:06.829Z,19.28
2022-08-03T22:34:34.302Z,19.25
2022-08-03T22:37:03.796Z,19.19
2022-08-03T22:39:31.729Z,19.17
2022-08-03T22:42:01.603Z,19.16
2022-08-03T22:44:28.222Z,19.15
2022-08-03T22:46:56.037Z,19.13
2022-08-03T22:49:23.222Z,19.13
2022-08-03T22:51:51.948Z,19.13
2022-08-03T22:54:18.808Z,19.07
2022-08-03T22:56:52.130Z,19.03
2022-08-03T22:59:38.882Z,18.93
2022-08-03T23:02:19.921Z,18.86
2022-08-03T23:04:56.931Z,18.82
2022-08-03T23:07:35.546Z,18.82
2022-08-03T23:10:14.012Z,18.89
2022-08-03T23:12:42.453Z,18.90
2022-08-03T23:15:12.588Z,18.89
2022-08-03T23:17:57.903Z,18.94
2022-08-03T23:20:26.825Z,18.96
2022-08-03T23:22:54.654Z,19.01
2022-08-03T23:25:22.185Z,18.98
2022-08-03T23:28:05.291Z,18.97
2022-08-03T23:30:34.722Z,18.92
2022-08-03T23:33:02.416Z,18.87
2022-08-03T23:36:29.773Z,18.82
2022-08-03T23:38:35.989Z,18.81
2022-08-03T23:41:04.503Z,18.82
2022-08-03T23:43:44.830Z,18.80
2022-08-03T23:46:22.571Z,18.72
2022-08-03T23:48:50.215Z,18.69
2022-08-03T23:51:36.579Z,18.63
2022-08-03T23:54:44.820Z,18.62
2022-08-03T23:57:32.714Z,18.58
